createdAt,value
2018-02-14T07:42:06.088Z,95615
2018-02-14T07:44:35.113Z,95628
2018-02-14T07:47:04.137Z,95616
2018-02-14T07:49:33.226Z,95619
2018-02-14T07:52:02.241Z,95617
2018-02-14T07:54:32.030Z,95619
2018-02-14T07:57:01.068Z,95614
2018-02-14T07:59:30.125Z,95616
2018-02-14T08:01:59.130Z,95614
2018-02-14T08:04:28.930Z,95618
2018-02-14T08:06:57.950Z,95605
2018-02-14T08:09:27.041Z,95616
2018-02-14T08:11:56.856Z,95629
2018-02-14T08:14:25.869Z,95618
2018-02-14T08:16:54.933Z,95625
2018-02-14T08:19:24.712Z,95626
2018-02-14T08:21:53.765Z,95614
2018-02-14T08:24:22.794Z,95629
2018-02-14T08:26:51.850Z,95629
2018-02-14T08:29:20.864Z,95618
2018-02-14T08:31:49.916Z,95616
2018-02-14T08:34:18.946Z,95629
2018-02-14T08:36:47.989Z,95633
2018-02-14T08:39:17.781Z,95633
2018-02-14T08:41:46.874Z,95630
2018-02-14T08:44:15.919Z,95635
2018-02-14T08:46:44.937Z,95637
2018-02-14T08:49:14.018Z,95637
2018-02-14T08:51:43.052Z,95635
2018-02-14T08:54:12.068Z,95640
2018-02-14T08:56:41.884Z,95634
2018-02-14T08:59:11.714Z,95637
2018-02-14T09:01:40.742Z,95639
2018-02-14T09:04:09.802Z,95642
2018-02-14T09:06:38.830Z,95646
2018-02-14T09:09:07.900Z,95648
2018-02-14T09:11:36.922Z,95646
2018-02-14T09:14:05.954Z,95649
2018-02-14T09:16:35.802Z,95649
2018-02-14T09:19:04.830Z,95642
2018-02-14T09:21:33.844Z,95644
2018-02-14T09:24:03.700Z,95644
2018-02-14T09:26:32.721Z,95654
2018-02-14T09:29:01.746Z,95653
2018-02-14T09:31:30.798Z,95651
2018-02-14T09:33:59.834Z,95651
2018-02-14T09:36:28.880Z,95649
2018-02-14T09:38:57.910Z,95652
2018-02-14T09:41:26.985Z,95656
2018-02-14T09:43:55.999Z,95656
2018-02-14T09:46:25.020Z,95661
2018-02-14T09:48:54.102Z,95672
2018-02-14T09:51:23.892Z,95669
2018-02-14T09:53:52.936Z,95659
2018-02-14T09:56:21.985Z,95665
2018-02-14T09:58:51.000Z,95663
2018-02-14T10:01:20.830Z,95667
2018-02-14T10:03:49.853Z,95672
2018-02-14T10:06:18.910Z,95675
2018-02-14T10:08:47.925Z,95676
2018-02-14T10:11:16.987Z,95674
2018-02-14T10:13:46.781Z,95672
2018-02-14T10:16:15.836Z,95679
2018-02-14T10:18:44.852Z,95689
2018-02-14T10:21:13.905Z,95691
2018-02-14T10:23:42.937Z,95683
2018-02-14T10:26:11.989Z,95690
2018-02-14T10:28:41.019Z,95684
2018-02-14T10:31:10.099Z,95691
2018-02-14T10:33:39.107Z,95698
2018-02-14T10:36:08.137Z,95699
2018-02-14T10:38:37.953Z,95693
2018-02-14T10:41:07.740Z,95690
2018-02-14T10:43:36.792Z,95700
2018-02-14T10:46:05.827Z,95699
2018-02-14T10:48:34.924Z,95700
2018-02-14T10:51:03.974Z,95699
2018-02-14T10:53:32.997Z,95697
2018-02-14T10:56:02.052Z,95700
2018-02-14T10:58:31.105Z,95688
2018-02-14T11:01:02.054Z,95700
2018-02-14T11:03:37.313Z,95689
2018-02-14T11:06:11.741Z,95696
2018-02-14T11:08:40.800Z,95692
2018-02-14T11:11:09.841Z,95695
2018-02-14T11:13:38.893Z,95703
2018-02-14T11:16:08.721Z,95706
2018-02-14T11:18:37.741Z,95705
2018-02-14T11:21:06.794Z,95702
2018-02-14T11:23:36.591Z,95702
2018-02-14T11:26:05.667Z,95703
2018-02-14T11:28:34.690Z,95715
2018-02-14T11:31:04.505Z,95710
2018-02-14T11:33:34.332Z,95716
2018-02-14T11:36:04.121Z,95717
2018-02-14T11:38:33.181Z,95709
2018-02-14T11:41:02.220Z,95706
2018-02-14T11:43:31.288Z,95714
2018-02-14T11:46:00.413Z,95728
2018-02-14T11:48:30.183Z,95718
2018-02-14T11:50:59.281Z,95716
2018-02-14T11:53:28.305Z,95723
2018-02-14T11:55:58.097Z,95719
2018-02-14T11:58:27.154Z,95710
2018-02-14T12:00:56.169Z,95709
2018-02-14T12:03:25.219Z,95710
2018-02-14T12:05:54.245Z,95714
2018-02-14T12:08:23.346Z,95705
2018-02-14T12:10:52.356Z,95717
2018-02-14T12:13:21.387Z,95709
2018-02-14T12:15:51.218Z,95723
2018-02-14T12:18:20.241Z,95721
2018-02-14T12:20:49.273Z,95721
2018-02-14T12:23:18.432Z,95717
2018-02-14T12:25:47.451Z,95724
2018-02-14T12:28:16.477Z,95714
2018-02-14T12:30:45.537Z,95708
2018-02-14T12:33:14.592Z,95717
2018-02-14T12:35:43.618Z,95708
2018-02-14T12:38:12.674Z,95700
2018-02-14T12:40:41.698Z,95699
2018-02-14T12:43:10.860Z,95694
2018-02-14T12:45:39.877Z,95697
2018-02-14T12:48:08.897Z,95691
2018-02-14T12:50:37.974Z,95688
2018-02-14T12:53:07.010Z,95684
2018-02-14T12:55:36.784Z,95694
2018-02-14T12:58:05.833Z,95701
2018-02-14T13:00:34.848Z,95692
2018-02-14T13:03:03.905Z,95696
2018-02-14T13:05:33.004Z,95701
2018-02-14T13:08:02.789Z,95695
2018-02-14T13:10:31.813Z,95694
2018-02-14T13:13:00.892Z,95687
2018-02-14T13:15:30.678Z,95687
2018-02-14T13:17:59.703Z,95694
2018-02-14T13:20:28.787Z,95689
2018-02-14T13:22:58.578Z,95692
2018-02-14T13:25:27.599Z,95692
2018-02-14T13:27:57.430Z,95697
2018-02-14T13:30:26.450Z,95699
2018-02-14T13:32:55.470Z,95701
2018-02-14T13:35:24.507Z,95706
2018-02-14T13:37:53.525Z,95699
2018-02-14T13:40:22.613Z,95707
2018-02-14T13:42:51.633Z,95701
2018-02-14T13:45:20.669Z,95698
2018-02-14T13:47:50.514Z,95707
2018-02-14T13:50:19.545Z,95704
2018-02-14T13:52:48.574Z,95708
2018-02-14T13:55:17.638Z,95710
2018-02-14T13:57:46.656Z,95711
2018-02-14T14:00:15.723Z,95716
2018-02-14T14:02:44.749Z,95714
2018-02-14T14:05:13.807Z,95709
2018-02-14T14:07:42.861Z,95707
2018-02-14T14:10:11.884Z,95710
2018-02-14T14:12:40.970Z,95726
2018-02-14T14:15:09.991Z,95732
2018-02-14T14:17:39.018Z,95729
2018-02-14T14:20:08.150Z,95731
2018-02-14T14:22:37.182Z,95732
2018-02-14T14:25:06.997Z,95733
2018-02-14T14:27:36.794Z,95743
2018-02-14T14:30:05.858Z,95741
2018-02-14T14:32:34.878Z,95735
2018-02-14T14:35:03.938Z,95745
2018-02-14T14:37:32.965Z,95749
2018-02-14T14:40:02.026Z,95748
2018-02-14T14:42:31.045Z,95753
2018-02-14T14:45:00.140Z,95751
2018-02-14T14:47:29.167Z,95754
2018-02-14T14:49:58.953Z,95755
2018-02-14T14:52:28.010Z,95752
2018-02-14T14:54:57.076Z,95753
2018-02-14T14:57:26.850Z,95757
2018-02-14T14:59:55.907Z,95756
2018-02-14T15:02:24.934Z,95761
2018-02-14T15:04:54.000Z,95767
2018-02-14T15:07:23.030Z,95764
2018-02-14T15:09:52.130Z,95756
2018-02-14T15:12:21.158Z,95766
2018-02-14T15:14:50.186Z,95765
2018-02-14T15:17:19.277Z,95767
2018-02-14T15:19:48.301Z,95767
2018-02-14T15:22:17.325Z,95780
2018-02-14T15:24:46.481Z,95779
2018-02-14T15:27:15.502Z,95789
2018-02-14T15:29:45.287Z,95783
2018-02-14T15:32:14.349Z,95790
2018-02-14T15:34:43.378Z,95793
2018-02-14T15:37:12.426Z,95801
2018-02-14T15:39:41.440Z,95794
2018-02-14T15:42:10.530Z,95800
2018-02-14T15:44:39.562Z,95797
2018-02-14T15:47:08.587Z,95795
2018-02-14T15:49:37.628Z,95795
2018-02-14T15:52:06.636Z,95798
2018-02-14T15:54:35.650Z,95793
2018-02-14T15:57:05.458Z,95803
2018-02-14T15:59:35.237Z,95806
2018-02-14T16:02:04.282Z,95792
2018-02-14T16:04:33.327Z,95796
2018-02-14T16:07:02.343Z,95794
2018-02-14T16:09:31.351Z,95803
2018-02-14T16:12:01.130Z,95800
2018-02-14T16:14:30.202Z,95805
2018-02-14T16:17:05.181Z,95807
2018-02-14T16:19:34.994Z,95803
2018-02-14T16:22:05.339Z,95806
2018-02-14T16:24:34.423Z,95808
2018-02-14T16:27:04.184Z,95810
2018-02-14T16:29:33.201Z,95813
2018-02-14T16:32:02.246Z,95823
2018-02-14T16:34:31.253Z,95817
2018-02-14T16:37:00.302Z,95826
2018-02-14T16:39:30.090Z,95832
2018-02-14T16:41:59.170Z,95837
2018-02-14T16:44:28.182Z,95837
2018-02-14T16:46:57.200Z,95833
2018-02-14T16:49:27.014Z,95833
2018-02-14T16:51:56.795Z,95837
2018-02-14T16:54:26.055Z,95835
2018-02-14T16:56:55.070Z,95839
2018-02-14T16:59:24.122Z,95855
2018-02-14T17:01:53.142Z,95846
2018-02-14T17:04:22.186Z,95857
2018-02-14T17:06:51.206Z,95853
2018-02-14T17:09:20.265Z,95855
2018-02-14T17:11:49.276Z,95866
2018-02-14T17:14:18.294Z,95872
2018-02-14T17:16:47.358Z,95866
2018-02-14T17:19:16.373Z,95861
2018-02-14T17:21:45.392Z,95866
2018-02-14T17:24:14.541Z,95867
2018-02-14T17:26:43.561Z,95869
2018-02-14T17:29:13.286Z,95876
2018-02-14T17:31:42.339Z,95884
2018-02-14T17:34:12.114Z,95885
2018-02-14T17:36:41.161Z,95875
2018-02-14T17:39:10.178Z,95781
2018-02-14T17:41:39.344Z,95885
2018-02-14T17:44:08.373Z,95881
2018-02-14T17:46:37.397Z,95894
2018-02-14T17:49:06.474Z,95904
2018-02-14T17:51:35.490Z,95897
2018-02-14T17:54:04.505Z,95900
2018-02-14T17:56:34.321Z,95903
2018-02-14T17:59:04.101Z,95899
2018-02-14T18:01:33.175Z,95904
2018-02-14T18:04:02.185Z,95903
2018-02-14T18:06:32.051Z,95904
2018-02-14T18:09:01.081Z,95896
2018-02-14T18:11:30.117Z,95957
2018-02-14T18:13:59.202Z,95915
2018-02-14T18:16:29.033Z,95913
2018-02-14T18:18:58.936Z,95591
2018-02-14T18:21:28.735Z,95916
2018-02-14T18:23:57.784Z,95906
2018-02-14T18:26:26.846Z,95917
2018-02-14T18:28:55.888Z,95908
2018-02-14T18:31:24.919Z,95901
2018-02-14T18:33:53.979Z,95906
2018-02-14T18:36:23.051Z,95911
2018-02-14T18:38:52.078Z,95911
2018-02-14T18:41:21.109Z,95944
2018-02-14T18:43:50.212Z,95908
2018-02-14T18:46:19.226Z,95922
2018-02-14T18:48:48.722Z,95919
2018-02-14T18:51:17.839Z,95920
2018-02-14T18:56:42.179Z,95925
2018-02-14T18:59:11.286Z,95920
